Time;durP1;ratioP1;P1;durP2;ratioP2;P2;SDS_P1;SDS_P2;PMS_P1;PMS_P2;Temp;Humidity;BMP_temperature;BMP_pressure;BME280_temperature;BME280_humidity;BME280_pressure;Samples;Min_cycle;Max_cycle;Signal;HPM_P1;HPM_P2
2022/05/01 00:00:31;;;;;;;11.10;6.70;;;15.30;58.20;;;;;;5091351;28;20024;-79
2022/05/01 00:02:57;;;;;;;11.52;6.50;;;15.20;58.20;;;;;;5092290;28;20038;-81
2022/05/01 00:05:23;;;;;;;10.18;7.15;;;15.20;58.10;;;;;;5092065;28;20036;-80
2022/05/01 00:07:48;;;;;;;10.90;6.07;;;15.10;58.30;;;;;;5092601;28;20107;-81
2022/05/01 00:10:14;;;;;;;9.07;5.68;;;15.10;58.20;;;;;;5092248;28;20021;-80
2022/05/01 00:12:40;;;;;;;7.93;5.00;;;15.00;57.80;;;;;;5092454;28;20028;-80
2022/05/01 00:15:07;;;;;;;9.18;4.68;;;14.90;57.70;;;;;;5096177;28;20048;-81
2022/05/01 00:17:32;;;;;;;7.40;4.50;;;14.80;57.60;;;;;;5095453;28;20024;-80
2022/05/01 00:19:58;;;;;;;8.75;4.55;;;14.70;57.70;;;;;;5095963;28;20384;-81
2022/05/01 00:22:23;;;;;;;6.63;4.38;;;14.70;57.80;;;;;;5094791;28;20023;-80
2022/05/01 00:24:49;;;;;;;5.85;4.63;;;14.60;58.10;;;;;;5095279;28;20036;-80
2022/05/01 00:27:15;;;;;;;8.43;4.95;;;14.50;58.40;;;;;;5093936;28;20020;-80
2022/05/01 00:29:41;;;;;;;10.93;4.80;;;14.40;59.00;;;;;;5094609;28;20039;-81
2022/05/01 00:32:07;;;;;;;7.10;4.57;;;14.40;59.40;;;;;;5095807;28;20031;-81
2022/05/01 00:37:19;;;;;;;5.97;4.50;;;14.30;60.00;;;;;;5094895;28;20099;-80
2022/05/01 00:39:44;;;;;;;5.57;4.45;;;14.20;60.50;;;;;;5095124;28;20248;-81
2022/05/01 00:42:10;;;;;;;7.65;5.05;;;14.10;60.90;;;;;;5094822;28;20115;-80
2022/05/01 00:44:36;;;;;;;8.77;5.72;;;14.10;61.40;;;;;;5094718;28;20031;-81
2022/05/01 00:47:01;;;;;;;8.70;5.15;;;14.10;61.60;;;;;;5096010;28;20440;-81
2022/05/01 00:49:28;;;;;;;6.38;4.75;;;14.10;62.00;;;;;;5094887;28;20326;-81
2022/05/01 00:52:00;;;;;;;10.60;5.32;;;14.10;62.00;;;;;;5095341;28;20056;-82
2022/05/01 00:54:28;;;;;;;9.02;5.13;;;14.10;61.90;;;;;;5094853;28;20020;-81
2022/05/01 00:56:59;;;;;;;8.90;5.82;;;14.20;61.80;;;;;;5095319;28;20024;-81
2022/05/01 00:59:26;;;;;;;13.88;5.50;;;14.20;62.50;;;;;;5095072;28;20032;-80
2022/05/01 01:01:52;;;;;;;9.95;5.82;;;14.30;62.60;;;;;;5094055;28;20028;-81
2022/05/01 01:04:18;;;;;;;8.85;6.43;;;14.30;62.70;;;;;;5094374;28;20032;-81
2022/05/01 01:06:44;;;;;;;7.90;5.80;;;14.30;62.90;;;;;;5094621;28;20320;-81
2022/05/01 01:09:10;;;;;;;8.50;6.55;;;14.30;63.00;;;;;;5094652;28;20028;-82
2022/05/01 01:11:40;;;;;;;8.90;7.03;;;14.40;63.00;;;;;;5092266;28;20513;-81
2022/05/01 01:14:06;;;;;;;7.93;6.82;;;14.40;63.60;;;;;;5094120;28;20517;-81
2022/05/01 01:16:34;;;;;;;11.63;7.15;;;14.40;64.20;;;;;;5094331;28;20024;-81
2022/05/01 01:19:00;;;;;;;9.95;7.70;;;14.40;65.40;;;;;;5095416;28;20148;-81
2022/05/01 01:21:26;;;;;;;8.18;7.35;;;14.40;66.20;;;;;;5094392;28;20028;-80
2022/05/01 01:23:52;;;;;;;10.43;8.45;;;14.40;66.90;;;;;;5096241;28;20035;-81
2022/05/01 01:26:19;;;;;;;10.55;9.10;;;14.30;68.10;;;;;;5114436;28;20039;-80
2022/05/01 01:28:45;;;;;;;14.55;10.20;;;14.30;69.70;;;;;;5103227;28;20473;-82
2022/05/01 01:34:00;;;;;;;11.98;9.55;;;14.30;71.70;;;;;;5094860;28;20558;-80
2022/05/01 01:36:28;;;;;;;10.80;9.70;;;14.20;73.10;;;;;;5093862;28;20123;-80
2022/05/01 01:38:54;;;;;;;11.57;9.85;;;14.10;73.50;;;;;;5094339;28;20024;-81
2022/05/01 01:41:27;;;;;;;10.90;9.80;;;14.10;74.30;;;;;;5093899;28;20487;-80
2022/05/01 01:43:53;;;;;;;10.45;9.43;;;14.00;75.00;;;;;;5094739;28;20059;-82
2022/05/01 01:46:19;;;;;;;12.43;9.73;;;14.00;75.60;;;;;;5094866;28;20051;-81
2022/05/01 01:48:46;;;;;;;10.80;9.70;;;13.90;76.00;;;;;;5093698;28;20064;-81
2022/05/01 01:51:11;;;;;;;13.02;9.88;;;13.90;76.80;;;;;;5094536;28;20052;-82
2022/05/01 01:53:37;;;;;;;11.32;9.95;;;13.80;77.40;;;;;;5093117;28;20495;-81
2022/05/01 01:56:04;;;;;;;11.70;9.77;;;13.80;77.80;;;;;;5094084;28;20028;-82
2022/05/01 01:58:30;;;;;;;13.30;10.18;;;13.70;78.40;;;;;;5093830;28;20016;-80
2022/05/01 02:00:57;;;;;;;11.50;9.65;;;13.70;79.10;;;;;;5093948;28;20065;-80
2022/05/01 02:03:23;;;;;;;11.05;10.00;;;13.70;79.70;;;;;;5094000;28;20166;-81
2022/05/01 02:05:49;;;;;;;11.57;10.30;;;13.60;79.90;;;;;;5093474;28;20056;-81
2022/05/01 02:08:16;;;;;;;11.73;10.48;;;13.60;80.80;;;;;;5093840;28;20072;-80
2022/05/01 02:10:44;;;;;;;14.63;10.93;;;13.60;81.10;;;;;;5093374;28;20103;-80
2022/05/01 02:13:10;;;;;;;10.95;9.52;;;13.50;81.20;;;;;;5093755;28;20115;-81
2022/05/01 02:15:54;;;;;;;11.38;10.20;;;13.50;82.00;;;;;;5093135;28;20044;-80
2022/05/01 02:18:20;;;;;;;15.07;10.60;;;13.50;82.10;;;;;;5093849;28;20020;-80
2022/05/01 02:23:30;;;;;;;13.43;10.55;;;13.50;83.40;;;;;;5093232;28;20440;-80
2022/05/01 02:25:55;;;;;;;12.10;10.07;;;13.50;83.10;;;;;;5094037;28;20028;-81
2022/05/01 02:28:21;;;;;;;13.70;10.55;;;13.40;83.70;;;;;;5093426;28;20024;-81
2022/05/01 02:30:51;;;;;;;11.45;10.35;;;13.40;83.90;;;;;;5093121;28;20069;-81
2022/05/01 02:33:17;;;;;;;11.65;10.45;;;13.40;84.30;;;;;;5093857;28;20071;-81
2022/05/01 02:35:43;;;;;;;12.15;10.38;;;13.40;84.50;;;;;;5092231;28;20089;-80
2022/05/01 02:38:08;;;;;;;15.13;10.77;;;13.30;84.90;;;;;;5092704;28;20032;-81
2022/05/01 02:40:34;;;;;;;11.95;10.43;;;13.30;85.20;;;;;;5091684;28;20031;-80
2022/05/01 02:43:00;;;;;;;11.45;10.25;;;13.30;86.00;;;;;;5091829;28;20376;-81
2022/05/01 02:45:27;;;;;;;12.13;10.82;;;13.20;86.30;;;;;;5089233;28;20024;-81
2022/05/01 02:47:53;;;;;;;11.65;10.45;;;13.20;86.80;;;;;;5092531;28;20091;-82
2022/05/01 02:50:19;;;;;;;11.75;10.48;;;13.20;87.20;;;;;;5101513;28;20124;-81
2022/05/01 02:52:45;;;;;;;12.90;11.32;;;13.10;87.70;;;;;;5101047;28;20035;-81
2022/05/01 02:55:11;;;;;;;11.77;10.57;;;13.10;87.70;;;;;;5103077;28;20024;-81
2022/05/01 02:57:37;;;;;;;11.90;10.68;;;13.10;88.30;;;;;;5101359;28;20031;-81
2022/05/01 03:00:06;;;;;;;15.50;10.45;;;13.00;88.60;;;;;;5094844;28;20034;-81
2022/05/01 03:02:32;;;;;;;14.80;10.32;;;13.00;89.40;;;;;;5091729;28;20365;-81
2022/05/01 03:04:58;;;;;;;14.43;11.68;;;12.90;89.80;;;;;;5092474;28;20034;-80
2022/05/01 03:07:43;;;;;;;12.85;10.57;;;12.90;90.10;;;;;;5098783;28;20027;-81
2022/05/01 03:10:10;;;;;;;13.15;11.10;;;12.90;90.40;;;;;;5092983;28;20055;-81
2022/05/01 03:12:37;;;;;;;13.30;11.07;;;12.80;90.60;;;;;;5110167;28;20032;-81
2022/05/01 03:15:04;;;;;;;11.98;10.75;;;12.80;90.90;;;;;;5113337;28;20052;-81
2022/05/01 03:22:10;;;;;;;12.38;10.88;;;12.70;91.20;;;;;;5113065;28;20076;-81
2022/05/01 03:23:00;;;;;;;11.73;10.52;;;12.70;91.70;;;;;;5112660;28;20042;-81
2022/05/01 03:25:25;;;;;;;11.48;10.27;;;12.70;91.90;;;;;;5112912;28;20023;-81
2022/05/01 03:27:52;;;;;;;12.90;11.40;;;12.60;92.10;;;;;;5112335;28;20028;-81
2022/05/01 03:30:19;;;;;;;14.15;10.10;;;12.60;92.20;;;;;;5112851;28;20035;-81
2022/05/01 03:32:45;;;;;;;11.55;10.45;;;12.60;92.30;;;;;;5112143;28;20032;-81
2022/05/01 03:35:11;;;;;;;12.00;10.73;;;12.60;92.50;;;;;;5113088;28;20353;-82
2022/05/01 03:37:37;;;;;;;13.52;11.23;;;12.60;92.70;;;;;;5116705;28;20027;-81
2022/05/01 03:40:04;;;;;;;11.38;10.25;;;12.60;92.80;;;;;;5126053;28;20097;-81
2022/05/01 03:42:29;;;;;;;11.85;10.68;;;12.60;92.70;;;;;;5128908;28;20028;-81
2022/05/01 03:44:55;;;;;;;11.57;10.38;;;12.60;93.00;;;;;;5133524;28;20030;-81
2022/05/01 03:47:21;;;;;;;12.10;10.80;;;12.50;93.10;;;;;;5119807;28;20035;-82
2022/05/01 03:49:46;;;;;;;13.55;11.73;;;12.50;93.30;;;;;;5112423;28;20048;-81
2022/05/01 03:52:12;;;;;;;13.45;9.90;;;12.50;93.40;;;;;;5120865;28;20055;-80
2022/05/01 03:54:38;;;;;;;11.93;10.45;;;12.50;93.60;;;;;;5134431;28;20031;-80
2022/05/01 03:57:04;;;;;;;11.93;10.68;;;12.50;93.60;;;;;;5134952;28;20024;-82
2022/05/01 03:59:30;;;;;;;11.98;10.30;;;12.60;93.60;;;;;;5122470;28;20462;-83
2022/05/01 04:01:55;;;;;;;10.98;9.90;;;12.60;93.60;;;;;;5112446;28;20024;-82
2022/05/01 04:04:21;;;;;;;10.15;9.13;;;12.60;93.70;;;;;;5112817;28;20027;-81
2022/05/01 04:06:47;;;;;;;11.98;10.70;;;12.50;93.80;;;;;;5111813;28;20023;-81
2022/05/01 04:09:12;;;;;;;11.88;10.68;;;12.60;93.90;;;;;;5113007;28;20020;-81
2022/05/01 04:11:38;;;;;;;10.93;9.70;;;12.60;94.20;;;;;;5111800;28;20020;-81
2022/05/01 04:14:04;;;;;;;11.52;10.38;;;12.60;94.20;;;;;;5112252;28;20048;-81
2022/05/01 04:16:29;;;;;;;15.38;10.40;;;12.50;94.00;;;;;;5112599;28;20028;-81
2022/05/01 04:18:55;;;;;;;11.68;10.48;;;12.60;94.20;;;;;;5111948;28;20028;-81
2022/05/01 04:21:21;;;;;;;11.82;10.60;;;12.60;94.50;;;;;;5112405;28;20023;-82
2022/05/01 04:23:47;;;;;;;11.27;10.18;;;12.60;94.10;;;;;;5111769;28;20084;-81
2022/05/01 04:26:13;;;;;;;12.48;10.52;;;12.60;94.30;;;;;;5112053;28;20019;-82
2022/05/01 04:28:38;;;;;;;11.88;10.68;;;12.60;94.30;;;;;;5112120;28;20081;-81
2022/05/01 04:31:04;;;;;;;11.90;10.70;;;12.60;94.30;;;;;;5099913;28;20023;-82
2022/05/01 04:33:30;;;;;;;11.70;10.50;;;12.70;94.20;;;;;;5092371;28;20036;-82
2022/05/01 04:35:55;;;;;;;11.68;10.52;;;12.70;94.30;;;;;;5107010;28;20111;-81
2022/05/01 04:38:23;;;;;;;13.60;10.70;;;12.70;94.30;;;;;;5091972;28;20024;-81
2022/05/01 04:40:55;;;;;;;12.43;10.50;;;12.70;94.40;;;;;;5091314;28;20024;-81
2022/05/01 04:43:26;;;;;;;13.23;10.48;;;12.80;94.20;;;;;;5091648;28;20067;-81
2022/05/01 04:45:53;;;;;;;11.65;10.38;;;12.80;94.00;;;;;;5091256;28;20024;-82
2022/05/01 04:48:21;;;;;;;12.23;10.05;;;12.90;93.80;;;;;;5090881;28;20115;-80
2022/05/01 04:50:48;;;;;;;10.77;9.63;;;13.00;93.40;;;;;;5091263;28;20035;-81
2022/05/01 04:53:15;;;;;;;11.40;9.80;;;13.00;93.10;;;;;;5090427;28;20039;-81
2022/05/01 04:55:42;;;;;;;12.88;10.77;;;13.10;92.90;;;;;;5090922;28;20492;-81
2022/05/01 04:58:10;;;;;;;11.38;10.10;;;13.00;93.00;;;;;;5091611;28;20028;-81
2022/05/01 05:00:36;;;;;;;12.65;10.05;;;13.10;92.80;;;;;;5094996;28;20469;-81
2022/05/01 05:03:03;;;;;;;10.93;9.82;;;13.10;92.80;;;;;;5094572;28;20032;-81
2022/05/01 05:05:31;;;;;;;11.45;10.23;;;13.20;92.80;;;;;;5095203;28;20031;-81
2022/05/01 05:09:53;;;;;;;14.02;10.30;;;13.20;92.30;;;;;;5094496;28;20035;-81
2022/05/01 05:10:48;;;;;;;11.80;10.70;;;13.30;92.10;;;;;;5094025;28;20034;-81
2022/05/01 05:13:15;;;;;;;11.40;10.32;;;13.30;91.90;;;;;;5095083;28;20055;-81
2022/05/01 05:15:40;;;;;;;11.02;9.80;;;13.40;91.90;;;;;;5094551;28;20048;-79
2022/05/01 05:18:06;;;;;;;11.10;9.95;;;13.50;91.60;;;;;;5097833;28;20352;-81
2022/05/01 05:20:32;;;;;;;10.70;8.88;;;13.50;91.40;;;;;;5105791;28;20039;-81
2022/05/01 05:22:58;;;;;;;12.00;10.07;;;13.60;91.10;;;;;;5106115;28;20024;-80
2022/05/01 05:25:23;;;;;;;11.13;10.02;;;13.70;91.20;;;;;;5105214;28;20024;-80
2022/05/01 05:27:49;;;;;;;11.18;9.75;;;13.80;90.50;;;;;;5108899;28;20117;-79
2022/05/01 05:30:15;;;;;;;11.05;9.85;;;13.90;90.70;;;;;;5122378;28;20028;-80
2022/05/01 05:32:40;;;;;;;10.88;9.73;;;14.10;90.00;;;;;;5104796;28;20027;-75
2022/05/01 05:35:06;;;;;;;11.05;9.82;;;14.20;89.10;;;;;;5104428;28;20024;-81
2022/05/01 05:37:32;;;;;;;11.15;10.00;;;14.20;88.60;;;;;;5103805;28;20426;-81
2022/05/01 05:39:58;;;;;;;12.13;9.63;;;14.40;88.20;;;;;;5094938;28;20115;-81
2022/05/01 05:42:24;;;;;;;11.45;10.13;;;14.50;87.80;;;;;;5094281;28;20438;-81
2022/05/01 05:44:50;;;;;;;12.55;9.00;;;14.60;85.50;;;;;;5093612;28;20028;-80
2022/05/01 05:47:16;;;;;;;11.00;9.90;;;14.70;85.50;;;;;;5094420;28;20114;-81
2022/05/01 05:49:42;;;;;;;12.43;9.23;;;14.70;84.10;;;;;;5093988;28;20107;-76
2022/05/01 05:52:07;;;;;;;11.95;10.05;;;14.80;83.40;;;;;;5094377;28;20058;-81
2022/05/01 05:54:33;;;;;;;10.57;9.57;;;14.70;83.30;;;;;;5094072;28;20020;-80
2022/05/01 05:56:59;;;;;;;11.95;9.48;;;14.60;83.60;;;;;;5093594;28;20453;-81
2022/05/01 05:59:24;;;;;;;13.65;9.57;;;14.70;83.40;;;;;;5094583;28;20031;-82
2022/05/01 06:01:50;;;;;;;11.98;10.10;;;14.70;84.20;;;;;;5093279;28;20115;-80
2022/05/01 06:04:16;;;;;;;11.70;9.88;;;14.70;84.60;;;;;;5093884;28;20035;-81
2022/05/01 06:06:41;;;;;;;11.43;10.23;;;14.70;83.70;;;;;;5093867;28;20104;-81
2022/05/01 06:09:08;;;;;;;11.00;9.32;;;14.90;83.60;;;;;;5093979;28;20107;-81
2022/05/01 06:11:35;;;;;;;10.40;9.40;;;15.10;82.20;;;;;;5093202;28;20020;-82
2022/05/01 06:14:04;;;;;;;12.27;9.48;;;15.10;81.30;;;;;;5092705;28;20052;-81
2022/05/01 06:16:31;;;;;;;10.52;9.52;;;15.10;81.20;;;;;;5092999;28;20032;-79
2022/05/01 06:18:59;;;;;;;11.82;10.65;;;15.20;80.90;;;;;;5093174;28;20035;-81
2022/05/01 06:21:25;;;;;;;11.38;10.00;;;15.20;80.60;;;;;;5089477;28;20158;-81
2022/05/01 06:23:50;;;;;;;11.93;10.27;;;15.20;80.20;;;;;;5092319;28;20113;-81
2022/05/01 06:26:16;;;;;;;10.05;9.05;;;15.20;80.50;;;;;;5093513;28;20568;-82
2022/05/01 06:28:43;;;;;;;11.27;10.18;;;15.20;80.80;;;;;;5092750;28;20464;-81
2022/05/01 06:31:09;;;;;;;11.27;9.30;;;15.20;80.60;;;;;;5093565;28;20069;-81
2022/05/01 06:33:36;;;;;;;10.88;9.20;;;15.30;80.10;;;;;;5093608;28;20451;-81
2022/05/01 06:36:02;;;;;;;11.10;10.00;;;15.30;80.30;;;;;;5092407;28;20024;-79
2022/05/01 06:38:29;;;;;;;10.35;9.35;;;15.30;80.40;;;;;;5093763;28;20028;-78
2022/05/01 06:40:55;;;;;;;10.52;9.43;;;15.50;80.70;;;;;;5093033;28;20038;-80
2022/05/01 06:43:21;;;;;;;12.38;9.52;;;15.60;79.70;;;;;;5093351;28;20032;-80
2022/05/01 06:45:50;;;;;;;12.30;9.05;;;15.80;79.00;;;;;;5092398;28;20023;-84
2022/05/01 06:48:15;;;;;;;10.70;9.25;;;16.10;81.00;;;;;;5091546;28;20044;-81
2022/05/01 06:50:41;;;;;;;10.63;9.52;;;16.80;76.50;;;;;;5093194;28;20060;-79
2022/05/01 06:53:07;;;;;;;11.98;9.30;;;16.90;73.40;;;;;;5092732;28;20028;-82
2022/05/01 06:55:34;;;;;;;11.23;9.05;;;17.20;71.00;;;;;;5092964;28;20488;-82
2022/05/01 06:58:00;;;;;;;9.95;8.95;;;17.10;71.50;;;;;;5095165;28;20028;-83
2022/05/01 07:00:26;;;;;;;9.77;8.77;;;17.40;71.20;;;;;;5101332;28;20031;-83
2022/05/01 07:03:10;;;;;;;9.65;8.68;;;17.70;69.50;;;;;;5101300;28;20047;-84
2022/05/01 07:05:35;;;;;;;10.88;9.23;;;17.80;67.90;;;;;;5093123;28;20469;-81
2022/05/01 07:08:01;;;;;;;10.05;9.15;;;17.80;67.20;;;;;;5092692;28;20057;-83
2022/05/01 07:10:27;;;;;;;11.40;8.43;;;18.00;66.60;;;;;;5093152;28;20027;-83
2022/05/01 07:12:52;;;;;;;9.55;8.52;;;17.90;64.90;;;;;;5092702;28;20389;-81
2022/05/01 07:15:18;;;;;;;9.23;8.38;;;17.80;65.50;;;;;;5093450;28;20059;-81
2022/05/01 07:17:43;;;;;;;10.25;9.23;;;17.70;65.90;;;;;;5092725;28;20122;-82
2022/05/01 07:20:10;;;;;;;10.88;8.88;;;17.70;65.90;;;;;;5092133;28;20082;-81
2022/05/01 07:22:36;;;;;;;9.35;8.48;;;17.50;64.70;;;;;;5091587;28;20036;-81
2022/05/01 07:25:02;;;;;;;9.77;8.77;;;17.70;65.60;;;;;;5091829;28;20036;-80
2022/05/01 07:27:28;;;;;;;9.80;8.80;;;17.70;64.90;;;;;;5092601;28;20036;-81
2022/05/01 07:29:53;;;;;;;9.85;8.80;;;17.70;64.40;;;;;;5092006;28;20101;-81
2022/05/01 07:32:19;;;;;;;9.23;8.43;;;17.90;63.40;;;;;;5092599;28;20467;-82
2022/05/01 07:34:44;;;;;;;10.23;8.48;;;17.90;63.00;;;;;;5092736;28;20028;-81
2022/05/01 07:37:10;;;;;;;10.07;8.80;;;17.90;62.00;;;;;;5091457;28;20495;-82
2022/05/01 07:39:36;;;;;;;10.82;8.68;;;17.60;62.90;;;;;;5093144;28;20028;-81
2022/05/01 07:42:01;;;;;;;10.07;8.63;;;17.50;63.70;;;;;;5092622;28;20033;-81
2022/05/01 07:44:27;;;;;;;9.38;8.48;;;17.40;64.00;;;;;;5092529;28;20449;-81
2022/05/01 07:46:52;;;;;;;12.48;8.52;;;17.30;64.80;;;;;;5091705;28;20104;-80
2022/05/01 07:49:19;;;;;;;9.90;8.82;;;17.20;65.40;;;;;;5092641;28;20027;-81
2022/05/01 07:51:45;;;;;;;10.20;8.55;;;17.10;65.00;;;;;;5092571;28;20024;-81
2022/05/01 07:54:10;;;;;;;13.70;9.05;;;17.00;64.90;;;;;;5091875;28;20380;-82
2022/05/01 07:56:36;;;;;;;9.90;8.90;;;16.90;65.10;;;;;;5091869;28;20456;-80
2022/05/01 07:59:02;;;;;;;9.25;8.35;;;16.80;66.60;;;;;;5091522;28;20021;-82
2022/05/01 08:01:28;;;;;;;10.43;8.85;;;16.80;66.60;;;;;;5092299;28;20024;-81
2022/05/01 08:06:38;;;;;;;8.95;7.60;;;16.70;67.20;;;;;;5091713;28;20039;-81
2022/05/01 08:09:04;;;;;;;11.70;8.35;;;16.70;67.50;;;;;;5091555;28;20024;-82
2022/05/01 08:11:31;;;;;;;9.38;8.38;;;16.70;67.20;;;;;;5092201;28;20369;-82
2022/05/01 08:13:56;;;;;;;12.52;11.15;;;16.70;67.40;;;;;;5091482;28;20044;-81
2022/05/01 08:16:22;;;;;;;9.80;8.73;;;16.70;67.30;;;;;;5092318;28;20035;-81
2022/05/01 08:21:33;;;;;;;10.10;9.10;;;16.70;69.10;;;;;;5091991;28;20157;-82
2022/05/01 08:23:59;;;;;;;13.77;10.00;;;16.70;69.50;;;;;;5094259;28;20031;-81
2022/05/01 08:26:26;;;;;;;12.07;9.82;;;16.50;69.70;;;;;;5102789;28;20042;-81
2022/05/01 08:28:54;;;;;;;10.13;9.05;;;16.40;70.50;;;;;;5100525;28;20019;-81
2022/05/01 08:31:23;;;;;;;13.68;9.88;;;16.30;71.70;;;;;;5100207;28;20070;-81
2022/05/01 08:33:49;;;;;;;10.85;9.75;;;16.20;72.40;;;;;;5096396;28;20055;-82
2022/05/01 08:36:14;;;;;;;10.77;8.95;;;16.10;73.90;;;;;;5096098;28;20097;-80
2022/05/01 08:38:42;;;;;;;10.45;9.32;;;16.10;74.90;;;;;;5095536;28;20036;-81
2022/05/01 08:41:08;;;;;;;10.60;9.50;;;16.10;74.90;;;;;;5100477;28;20203;-82
2022/05/01 08:43:35;;;;;;;10.63;9.43;;;16.00;75.20;;;;;;5095626;28;20036;-82
2022/05/01 08:46:16;;;;;;;9.38;7.95;;;16.00;76.30;;;;;;5094744;28;20028;-81
2022/05/01 08:49:05;;;;;;;9.77;8.63;;;16.10;75.90;;;;;;5092470;28;20024;-82
2022/05/01 08:51:38;;;;;;;11.38;8.52;;;16.10;75.40;;;;;;5095959;28;20097;-81
2022/05/01 08:54:08;;;;;;;12.05;8.80;;;16.10;75.30;;;;;;5094945;28;20029;-82
2022/05/01 08:56:35;;;;;;;9.23;8.32;;;16.20;75.10;;;;;;5093361;28;20028;-82
2022/05/01 08:59:05;;;;;;;9.60;8.63;;;16.20;75.00;;;;;;5095037;28;20474;-82
2022/05/01 09:01:33;;;;;;;9.07;8.15;;;16.20;74.50;;;;;;5095652;28;20607;-82
2022/05/01 09:03:59;;;;;;;13.30;8.32;;;16.20;74.60;;;;;;5094697;28;20040;-82
2022/05/01 09:06:25;;;;;;;9.55;8.00;;;16.20;74.60;;;;;;5094921;28;20024;-79
2022/05/01 09:08:51;;;;;;;12.30;8.35;;;16.20;75.10;;;;;;5094838;28;20032;-78
2022/05/01 09:14:05;;;;;;;9.57;8.57;;;16.10;75.10;;;;;;5094066;28;20058;-78
2022/05/01 09:16:32;;;;;;;9.90;8.90;;;16.00;75.60;;;;;;5114707;28;20103;-78
2022/05/01 09:18:58;;;;;;;10.82;8.85;;;16.00;75.80;;;;;;5114492;28;20135;-79
2022/05/01 09:21:24;;;;;;;8.48;7.13;;;15.80;76.30;;;;;;5114950;28;20467;-79
2022/05/01 09:23:50;;;;;;;9.40;7.68;;;15.70;77.50;;;;;;5103893;28;20063;-80
2022/05/01 09:26:18;;;;;;;8.32;7.53;;;15.60;78.10;;;;;;5093985;28;20469;-78
2022/05/01 09:28:54;;;;;;;7.85;7.15;;;15.60;78.90;;;;;;5094441;28;20027;-79
2022/05/01 09:31:44;;;;;;;9.48;7.80;;;15.50;79.20;;;;;;5096139;28;20028;-79
2022/05/01 09:34:24;;;;;;;8.82;7.93;;;15.50;80.40;;;;;;5090158;28;20028;-79
2022/05/01 09:37:18;;;;;;;12.77;7.82;;;15.50;82.60;;;;;;5093396;28;20115;-79
2022/05/01 09:39:49;;;;;;;8.45;7.57;;;15.50;83.60;;;;;;5094235;28;20073;-79
2022/05/01 09:42:19;;;;;;;9.93;8.20;;;15.50;86.40;;;;;;5099389;28;20056;-79
2022/05/01 09:45:05;;;;;;;10.00;8.80;;;15.50;88.40;;;;;;5096548;28;20400;-79
2022/05/01 09:47:42;;;;;;;11.05;9.82;;;15.50;90.20;;;;;;5098112;28;20032;-80
2022/05/01 09:50:09;;;;;;;10.68;9.45;;;15.50;90.70;;;;;;5074672;28;20412;-78
2022/05/01 09:52:59;;;;;;;11.60;9.77;;;15.50;90.90;;;;;;5075264;28;20024;-79
2022/05/01 09:55:26;;;;;;;10.27;8.65;;;15.50;91.30;;;;;;5077875;28;20048;-80
2022/05/01 09:58:12;;;;;;;10.98;9.18;;;15.50;91.50;;;;;;5087713;28;20029;-79
2022/05/01 10:00:46;;;;;;;11.85;9.35;;;15.50;91.50;;;;;;5101640;28;20055;-79
2022/05/01 10:03:25;;;;;;;12.05;9.15;;;15.50;91.50;;;;;;5074477;28;20036;-80
2022/05/01 10:05:52;;;;;;;12.65;9.18;;;15.50;92.20;;;;;;5090296;28;20135;-79
2022/05/01 10:08:19;;;;;;;10.00;8.68;;;15.50;92.70;;;;;;5094719;28;20043;-79
2022/05/01 10:10:47;;;;;;;11.35;9.43;;;15.50;92.50;;;;;;5095500;28;20019;-79
2022/05/01 10:13:13;;;;;;;11.35;9.55;;;15.60;93.00;;;;;;5092054;28;20326;-80
2022/05/01 10:15:39;;;;;;;9.57;8.60;;;15.50;93.00;;;;;;5093835;28;20461;-79
2022/05/01 10:18:06;;;;;;;11.10;9.20;;;15.60;93.30;;;;;;5093151;28;20116;-80
2022/05/01 10:20:51;;;;;;;12.02;9.63;;;15.60;93.10;;;;;;5093335;28;20434;-79
2022/05/01 10:23:17;;;;;;;12.40;10.55;;;15.70;93.40;;;;;;5108226;28;20338;-79
2022/05/01 10:25:55;;;;;;;10.32;9.32;;;15.80;93.00;;;;;;5093219;28;20039;-80
2022/05/01 10:28:45;;;;;;;10.60;9.50;;;15.90;92.90;;;;;;5093357;28;20024;-79
2022/05/01 10:34:15;;;;;;;10.32;8.75;;;15.90;91.40;;;;;;5092721;28;20093;-79
2022/05/01 10:37:13;;;;;;;10.93;9.63;;;15.90;89.40;;;;;;5093649;28;20024;-79
2022/05/01 10:39:40;;;;;;;10.50;9.48;;;15.90;89.40;;;;;;5071627;28;20036;-79
2022/05/01 10:42:07;;;;;;;11.95;9.30;;;15.90;88.40;;;;;;5092366;28;20119;-79
2022/05/01 10:44:36;;;;;;;12.05;9.73;;;15.90;87.50;;;;;;5093104;28;20028;-79
2022/05/01 10:47:05;;;;;;;14.50;10.77;;;15.90;88.50;;;;;;5092576;28;20023;-79
2022/05/01 10:49:41;;;;;;;14.50;11.80;;;15.90;90.50;;;;;;5093086;28;20032;-79
2022/05/01 10:52:23;;;;;;;12.27;10.93;;;15.80;90.90;;;;;;5092140;28;20020;-79
2022/05/01 10:54:54;;;;;;;12.77;10.45;;;15.80;91.60;;;;;;5093140;28;20354;-81
2022/05/01 10:57:20;;;;;;;13.10;11.35;;;15.90;91.80;;;;;;5092480;28;20039;-79
2022/05/01 10:59:48;;;;;;;18.10;10.10;;;15.80;92.10;;;;;;5093301;28;20032;-79
2022/05/01 11:02:38;;;;;;;13.15;10.98;;;15.90;92.90;;;;;;5092498;28;20033;-81
2022/05/01 11:05:04;;;;;;;14.23;11.00;;;15.90;93.30;;;;;;5092400;28;20054;-79
2022/05/01 11:07:33;;;;;;;12.93;11.13;;;15.80;93.60;;;;;;5093027;28;20028;-80
2022/05/01 11:10:00;;;;;;;13.07;11.40;;;15.80;93.70;;;;;;5092190;28;20162;-79
2022/05/01 11:12:27;;;;;;;14.75;10.90;;;15.80;94.30;;;;;;5092745;28;20036;-80
2022/05/01 11:15:11;;;;;;;10.75;9.63;;;15.80;94.30;;;;;;5092114;28;20413;-80
2022/05/01 11:17:36;;;;;;;11.52;10.32;;;15.80;94.40;;;;;;5092267;28;20024;-80
2022/05/01 11:20:14;;;;;;;10.25;9.25;;;15.80;94.10;;;;;;5091752;28;20031;-79
2022/05/01 11:22:41;;;;;;;9.07;8.18;;;15.80;93.90;;;;;;5090137;28;20500;-80
2022/05/01 11:25:13;;;;;;;9.13;8.23;;;15.70;93.30;;;;;;5090175;28;20436;-78
2022/05/01 11:27:52;;;;;;;11.70;8.20;;;15.60;93.20;;;;;;5092199;28;20039;-76
2022/05/01 11:30:26;;;;;;;9.43;8.45;;;15.70;94.00;;;;;;5091824;28;20028;-77
2022/05/01 11:33:10;;;;;;;14.18;9.02;;;15.70;94.60;;;;;;5092268;28;20035;-79
2022/05/01 11:35:55;;;;;;;10.55;8.68;;;15.70;95.00;;;;;;5092346;28;20020;-78
2022/05/01 11:38:24;;;;;;;11.00;8.23;;;15.70;94.70;;;;;;5091533;28;20073;-76
2022/05/01 11:40:55;;;;;;;9.32;8.05;;;15.70;94.70;;;;;;5092221;28;20118;-77
2022/05/01 11:43:21;;;;;;;9.98;8.93;;;15.70;94.90;;;;;;5091477;28;20516;-77
2022/05/01 11:45:47;;;;;;;8.02;7.22;;;15.70;95.60;;;;;;5092667;28;20032;-77
2022/05/01 11:48:17;;;;;;;9.90;6.45;;;15.60;94.30;;;;;;5091462;28;20024;-76
2022/05/01 11:50:43;;;;;;;10.52;7.20;;;15.50;93.30;;;;;;5092103;28;20099;-76
2022/05/01 11:53:37;;;;;;;8.93;6.75;;;15.50;94.00;;;;;;5091524;28;20078;-76
2022/05/01 12:04:39;;;;;;;9.05;8.15;;;15.50;96.00;;;;;;5075490;28;20265;-77
2022/05/01 12:07:13;;;;;;;9.27;7.63;;;15.60;96.50;;;;;;5091155;28;20035;-77
2022/05/01 12:09:40;;;;;;;7.68;6.95;;;15.60;96.10;;;;;;5093697;28;20530;-76
2022/05/01 12:12:09;;;;;;;8.82;6.95;;;15.60;95.80;;;;;;5095390;28;20481;-77
2022/05/01 12:14:36;;;;;;;7.88;6.65;;;15.60;94.80;;;;;;5095188;28;20047;-77
2022/05/01 12:17:06;;;;;;;7.70;6.90;;;15.60;94.10;;;;;;5096025;28;20021;-77
2022/05/01 12:19:37;;;;;;;8.00;7.15;;;15.70;94.20;;;;;;5100963;28;20031;-77
2022/05/01 12:22:07;;;;;;;10.95;6.93;;;15.70;94.10;;;;;;5101925;28;20044;-75
2022/05/01 12:24:34;;;;;;;7.22;6.53;;;15.80;93.60;;;;;;5107682;28;20094;-76
2022/05/01 12:27:00;;;;;;;7.80;6.63;;;15.80;93.50;;;;;;5107107;28;20078;-76
2022/05/01 12:29:27;;;;;;;7.72;6.93;;;15.90;94.30;;;;;;5105223;28;20060;-76
2022/05/01 12:32:08;;;;;;;8.77;7.13;;;16.00;94.20;;;;;;5106217;28;20449;-77
2022/05/01 12:34:38;;;;;;;7.90;6.22;;;16.10;93.50;;;;;;5102410;28;20032;-76
2022/05/01 12:37:15;;;;;;;8.32;5.85;;;16.20;92.90;;;;;;5100356;28;20016;-76
2022/05/01 12:39:43;;;;;;;6.55;5.30;;;16.30;92.50;;;;;;5103708;28;20027;-76
2022/05/01 12:45:23;;;;;;;7.13;6.18;;;16.30;90.90;;;;;;5094723;28;20058;-76
2022/05/01 12:47:50;;;;;;;8.63;6.32;;;16.30;91.50;;;;;;5094715;28;20411;-77
2022/05/01 12:50:18;;;;;;;7.10;6.00;;;16.40;91.90;;;;;;5093839;28;20397;-76
2022/05/01 12:52:46;;;;;;;9.55;6.47;;;16.40;92.00;;;;;;5094687;28;20020;-77
2022/05/01 12:55:20;;;;;;;5.68;5.07;;;16.40;91.80;;;;;;5091485;28;20077;-77
2022/05/01 12:57:48;;;;;;;5.85;5.10;;;16.50;91.70;;;;;;5094095;28;20070;-76
2022/05/01 13:00:34;;;;;;;5.85;5.25;;;16.50;90.90;;;;;;5093597;28;20055;-76
2022/05/01 13:03:15;;;;;;;8.55;6.18;;;16.50;91.10;;;;;;5083957;28;20046;-77
2022/05/01 13:05:43;;;;;;;6.40;5.70;;;16.50;91.70;;;;;;5094965;28;20496;-76
2022/05/01 13:08:19;;;;;;;6.45;4.60;;;16.50;92.20;;;;;;5094351;28;20043;-76
2022/05/01 13:11:28;;;;;;;5.35;4.72;;;16.50;90.60;;;;;;5094747;28;20024;-76
2022/05/01 13:13:57;;;;;;;6.70;5.32;;;16.50;90.70;;;;;;5091116;28;20040;-75
2022/05/01 13:16:30;;;;;;;8.80;5.90;;;16.60;90.50;;;;;;5093976;28;20448;-75